METAR Data
IDs: Format: Raw Decoded Include TAF

Data at: 1815 UTC 03 Jul 2020

KVLD 031753Z 00000KT 10SM FEW120 33/22 A2991 RMK AO2 LTG DSNT NE SLP132 T03330222 10333 20261 58009